Time;durP1;ratioP1;P1;durP2;ratioP2;P2;SDS_P1;SDS_P2;PMS_P1;PMS_P2;Temp;Humidity;BMP_temperature;BMP_pressure;BME280_temperature;BME280_humidity;BME280_pressure;Samples;Min_cycle;Max_cycle;Signal;HPM_P1;HPM_P2
2023/08/27 00:01:10;;;;;;;5.30;3.30;;;;;;;16.32;100.00;100925.03;5015454;28;20374;-68
2023/08/27 00:03:37;;;;;;;3.80;3.10;;;;;;;16.27;100.00;100924.78;5027531;28;20041;-68
2023/08/27 00:06:04;;;;;;;5.00;2.67;;;;;;;16.25;100.00;100926.78;5027357;28;20045;-67
2023/08/27 00:08:30;;;;;;;3.40;2.80;;;;;;;16.29;100.00;100921.94;5020687;28;20474;-67
2023/08/27 00:10:58;;;;;;;3.20;2.70;;;;;;;16.28;100.00;100915.00;5030385;28;20059;-67
2023/08/27 00:13:25;;;;;;;3.97;2.90;;;;;;;16.29;100.00;100906.91;4996604;28;20172;-68
2023/08/27 00:15:52;;;;;;;3.38;2.78;;;;;;;16.24;100.00;100901.31;5016392;28;20103;-68
2023/08/27 00:18:18;;;;;;;4.30;2.67;;;;;;;16.31;100.00;100893.50;5030767;28;20447;-68
2023/08/27 00:20:48;;;;;;;3.67;2.13;;;;;;;16.26;100.00;100886.06;5019018;28;20714;-68
2023/08/27 00:23:16;;;;;;;5.60;2.88;;;;;;;16.31;100.00;100891.66;5026096;28;20097;-68
2023/08/27 00:25:43;;;;;;;3.45;2.63;;;;;;;16.32;100.00;100897.75;5020806;28;20050;-68
2023/08/27 00:28:13;;;;;;;5.20;2.90;;;;;;;16.32;100.00;100898.56;5026113;28;20125;-67
2023/08/27 00:30:39;;;;;;;4.70;2.75;;;;;;;16.25;100.00;100902.97;5015178;28;20104;-67
2023/08/27 00:33:06;;;;;;;5.07;3.03;;;;;;;16.24;100.00;100903.97;5024563;28;20152;-68
2023/08/27 00:35:32;;;;;;;4.90;2.38;;;;;;;16.20;100.00;100905.31;5024073;28;20112;-68
2023/08/27 00:37:59;;;;;;;4.82;2.67;;;;;;;16.23;100.00;100896.19;5023966;28;20535;-67
2023/08/27 00:40:29;;;;;;;4.75;2.80;;;;;;;16.27;100.00;100887.72;5019092;28;20523;-67
2023/08/27 00:42:56;;;;;;;4.68;2.70;;;;;;;16.29;100.00;100883.06;5015009;28;20111;-67
2023/08/27 00:45:24;;;;;;;4.72;2.72;;;;;;;16.29;100.00;100895.47;5027319;28;20065;-67
2023/08/27 00:47:50;;;;;;;3.97;2.55;;;;;;;16.27;100.00;100895.66;5016597;28;20041;-67
2023/08/27 00:50:19;;;;;;;4.15;2.70;;;;;;;16.28;100.00;100893.84;5022688;28;20045;-68
2023/08/27 00:52:45;;;;;;;3.90;2.53;;;;;;;16.20;100.00;100890.25;5014190;28;20057;-70
2023/08/27 00:55:12;;;;;;;3.38;2.63;;;;;;;16.12;100.00;100886.91;5021603;28;20053;-67
2023/08/27 00:57:40;;;;;;;4.75;2.97;;;;;;;16.10;100.00;100879.13;5017180;28;20053;-67
2023/08/27 01:00:09;;;;;;;4.40;2.58;;;;;;;16.15;100.00;100871.47;5011339;28;20556;-66
2023/08/27 01:02:42;;;;;;;3.80;2.75;;;;;;;16.15;100.00;100882.06;5023652;28;20053;-67
2023/08/27 01:05:09;;;;;;;5.97;2.70;;;;;;;16.06;100.00;100880.50;5019909;28;20131;-68
2023/08/27 01:07:58;;;;;;;5.78;2.50;;;;;;;16.11;100.00;100874.66;5020664;28;20045;-67
2023/08/27 01:10:40;;;;;;;3.90;2.53;;;;;;;16.12;100.00;100861.25;4994750;28;20156;-68
2023/08/27 01:13:16;;;;;;;3.60;2.13;;;;;;;16.15;100.00;100860.06;5008060;28;20559;-68
2023/08/27 01:15:45;;;;;;;4.65;2.42;;;;;;;16.11;100.00;100862.28;5022461;28;20073;-68
2023/08/27 01:18:14;;;;;;;3.28;2.10;;;;;;;16.11;100.00;100853.47;5027371;28;20045;-68
2023/08/27 01:20:41;;;;;;;2.60;2.13;;;;;;;16.11;100.00;100848.19;5012076;28;20061;-67
2023/08/27 01:23:07;;;;;;;5.28;2.92;;;;;;;16.09;100.00;100843.09;5018470;28;20136;-68
2023/08/27 01:25:44;;;;;;;2.95;1.88;;;;;;;16.12;100.00;100832.13;5030806;28;20672;-68
2023/08/27 01:28:14;;;;;;;3.03;1.90;;;;;;;16.10;100.00;100830.69;5008632;28;20071;-68
2023/08/27 01:30:45;;;;;;;2.47;1.95;;;;;;;16.11;100.00;100825.22;5022476;28;20512;-68
2023/08/27 01:33:20;;;;;;;2.55;1.92;;;;;;;16.14;100.00;100835.41;5014149;28;20054;-68
2023/08/27 01:35:47;;;;;;;4.38;2.10;;;;;;;16.10;100.00;100828.84;5023945;28;20063;-67
2023/08/27 01:38:14;;;;;;;5.63;2.00;;;;;;;16.11;100.00;100819.94;5023190;28;20046;-68
2023/08/27 01:40:40;;;;;;;5.03;2.10;;;;;;;16.17;100.00;100815.69;5003418;28;20734;-68
2023/08/27 01:43:07;;;;;;;6.22;2.42;;;;;;;16.19;100.00;100819.84;5026313;28;20049;-68
2023/08/27 01:45:33;;;;;;;3.33;1.98;;;;;;;16.17;100.00;100811.25;5013738;28;20061;-68
2023/08/27 01:47:59;;;;;;;4.07;2.03;;;;;;;16.12;100.00;100808.31;5024494;28;20053;-68
2023/08/27 01:50:26;;;;;;;4.25;2.10;;;;;;;16.12;100.00;100805.69;5019489;28;20049;-69
2023/08/27 01:52:52;;;;;;;4.57;2.28;;;;;;;16.14;100.00;100800.22;5020309;28;20053;-68
2023/08/27 01:55:19;;;;;;;5.18;2.30;;;;;;;16.14;100.00;100798.38;5026417;28;20754;-68
2023/08/27 01:57:45;;;;;;;4.32;2.55;;;;;;;16.13;100.00;100799.41;5017052;28;20049;-68
2023/08/27 02:00:14;;;;;;;3.08;1.90;;;;;;;16.13;100.00;100801.19;5017651;28;20051;-68
2023/08/27 02:02:41;;;;;;;2.92;2.20;;;;;;;16.06;100.00;100808.25;5016866;28;20151;-68
2023/08/27 02:05:08;;;;;;;4.72;2.28;;;;;;;15.99;100.00;100806.34;5028910;28;20514;-68
2023/08/27 02:07:36;;;;;;;3.92;2.00;;;;;;;16.00;100.00;100805.31;5015567;28;20203;-67
2023/08/27 02:10:05;;;;;;;8.25;2.20;;;;;;;16.05;100.00;100810.03;5020839;28;20073;-68
2023/08/27 02:12:31;;;;;;;5.15;2.50;;;;;;;16.07;100.00;100812.53;5029414;28;20485;-67
2023/08/27 02:14:58;;;;;;;4.32;2.20;;;;;;;16.07;100.00;100826.56;5025094;28;20569;-68
2023/08/27 02:17:24;;;;;;;3.05;2.20;;;;;;;16.07;100.00;100818.63;5027878;28;20077;-67
2023/08/27 02:19:51;;;;;;;5.55;2.70;;;;;;;16.10;100.00;100825.41;5021110;28;20243;-68
2023/08/27 02:22:20;;;;;;;2.80;1.95;;;;;;;16.11;100.00;100817.28;5006567;28;20687;-68
2023/08/27 02:24:46;;;;;;;4.53;2.33;;;;;;;16.10;100.00;100818.28;5022562;28;20060;-69
2023/08/27 02:27:13;;;;;;;3.92;2.25;;;;;;;16.12;100.00;100820.75;5017695;28;20132;-68
2023/08/27 02:29:40;;;;;;;4.30;2.47;;;;;;;16.11;100.00;100811.16;5020455;28;20159;-68
2023/08/27 02:32:06;;;;;;;4.35;2.25;;;;;;;16.08;100.00;100815.00;5020981;28;20139;-68
2023/08/27 02:34:33;;;;;;;3.35;2.40;;;;;;;16.01;100.00;100803.47;5028083;28;20153;-68
2023/08/27 02:36:59;;;;;;;4.20;2.45;;;;;;;15.95;100.00;100805.03;5017818;28;20053;-68
2023/08/27 02:39:26;;;;;;;9.43;2.63;;;;;;;15.88;100.00;100798.84;5030058;28;20048;-68
2023/08/27 02:41:52;;;;;;;3.30;2.17;;;;;;;15.78;100.00;100796.47;5017857;28;20148;-68
2023/08/27 02:44:18;;;;;;;6.47;2.53;;;;;;;15.76;100.00;100792.38;5025277;28;20071;-68
2023/08/27 02:46:45;;;;;;;4.82;2.40;;;;;;;15.70;100.00;100795.69;5033205;28;20052;-68
2023/08/27 02:49:11;;;;;;;3.35;2.40;;;;;;;15.64;100.00;100799.84;5029704;28;20049;-68
2023/08/27 02:51:38;;;;;;;5.70;2.60;;;;;;;15.63;100.00;100793.75;5032552;28;20077;-68
2023/08/27 02:54:04;;;;;;;3.60;2.17;;;;;;;15.61;100.00;100795.75;5017977;28;20067;-69
2023/08/27 02:56:31;;;;;;;4.25;2.38;;;;;;;15.59;100.00;100795.13;5033460;28;20757;-69
2023/08/27 02:58:57;;;;;;;4.50;2.45;;;;;;;15.59;100.00;100791.66;5022740;28;20427;-68
2023/08/27 03:01:24;;;;;;;3.70;2.70;;;;;;;15.59;100.00;100781.09;5030914;28;20137;-68
2023/08/27 03:03:51;;;;;;;3.83;2.50;;;;;;;15.62;100.00;100789.50;5026276;28;20685;-68
2023/08/27 03:06:18;;;;;;;5.95;2.70;;;;;;;15.59;100.00;100789.03;5021460;28;20068;-68
2023/08/27 03:08:45;;;;;;;6.50;2.42;;;;;;;15.65;100.00;100795.41;5023467;28;20049;-68
2023/08/27 03:11:11;;;;;;;4.47;2.65;;;;;;;15.67;100.00;100786.28;5002628;28;20053;-68
2023/08/27 03:13:38;;;;;;;5.78;2.63;;;;;;;15.66;100.00;100789.97;5027438;28;20050;-68
2023/08/27 03:16:04;;;;;;;4.57;2.60;;;;;;;15.65;100.00;100793.59;5028192;28;20143;-68
2023/08/27 03:18:32;;;;;;;4.15;2.60;;;;;;;15.68;100.00;100798.53;5021252;28;20776;-68
2023/08/27 03:20:59;;;;;;;3.75;2.60;;;;;;;15.70;100.00;100801.81;5032225;28;20479;-68
2023/08/27 03:23:25;;;;;;;4.93;2.58;;;;;;;15.69;100.00;100802.81;5014949;28;20720;-68
2023/08/27 03:25:52;;;;;;;5.90;2.60;;;;;;;15.71;100.00;100805.28;5021956;28;20041;-68
2023/08/27 03:28:18;;;;;;;3.40;2.22;;;;;;;15.76;100.00;100816.16;5014403;28;20513;-68
2023/08/27 03:30:44;;;;;;;4.18;2.22;;;;;;;15.64;100.00;100828.94;5024307;28;20136;-67
2023/08/27 03:33:11;;;;;;;3.50;1.88;;;;;;;15.65;100.00;100827.97;5027425;28;20175;-68
2023/08/27 03:35:37;;;;;;;3.00;2.10;;;;;;;15.68;100.00;100817.03;5015633;28;20511;-68
2023/08/27 03:38:04;;;;;;;3.88;2.10;;;;;;;15.58;100.00;100821.72;5019342;28;20502;-67
2023/08/27 03:40:30;;;;;;;2.67;1.80;;;;;;;15.59;100.00;100820.75;5028084;28;20053;-68
2023/08/27 03:42:57;;;;;;;2.42;1.70;;;;;;;15.62;100.00;100825.66;5021460;28;20758;-67
2023/08/27 03:45:24;;;;;;;2.83;1.73;;;;;;;15.57;100.00;100831.50;5021105;28;20053;-69
2023/08/27 03:47:50;;;;;;;5.68;2.00;;;;;;;15.39;100.00;100836.28;5030256;28;20041;-68
2023/08/27 03:50:16;;;;;;;4.07;1.98;;;;;;;15.18;100.00;100850.16;5016557;28;20057;-68
2023/08/27 03:52:43;;;;;;;4.28;2.50;;;;;;;15.01;100.00;100858.19;5014806;28;20063;-68
2023/08/27 03:55:09;;;;;;;4.68;2.80;;;;;;;14.68;100.00;100867.25;5031266;28;20143;-68
2023/08/27 03:57:36;;;;;;;5.95;3.00;;;;;;;14.57;100.00;100863.19;5018179;28;20224;-69
2023/08/27 04:00:04;;;;;;;7.10;3.17;;;;;;;14.59;100.00;100848.81;5009364;28;20057;-67
2023/08/27 04:02:31;;;;;;;;;;;;;;;14.53;100.00;100860.03;5022858;28;20135;-69
2023/08/27 04:04:57;;;;;;;5.95;3.15;;;;;;;14.58;100.00;100847.19;5025827;28;19960;-69
2023/08/27 04:07:24;;;;;;;7.53;2.80;;;;;;;14.70;100.00;100823.88;5025516;28;20045;-70
2023/08/27 04:09:50;;;;;;;5.57;2.75;;;;;;;14.79;100.00;100809.59;5019423;28;20093;-68
2023/08/27 04:12:17;;;;;;;5.90;3.20;;;;;;;14.85;100.00;100805.44;5006187;28;20053;-69
2023/08/27 04:14:43;;;;;;;5.95;2.85;;;;;;;14.82;100.00;100824.31;5014527;28;20060;-68
2023/08/27 04:17:10;;;;;;;4.05;3.30;;;;;;;14.85;100.00;100817.84;5020315;28;20517;-68
2023/08/27 04:19:37;;;;;;;5.47;3.00;;;;;;;14.88;100.00;100817.47;5020558;28;20057;-67
2023/08/27 04:22:04;;;;;;;6.40;2.80;;;;;;;14.88;100.00;100828.03;5016788;28;20462;-68
2023/08/27 04:24:30;;;;;;;4.47;2.83;;;;;;;14.78;100.00;100838.84;5028125;28;20137;-67
2023/08/27 04:26:58;;;;;;;4.22;3.10;;;;;;;14.69;100.00;100834.59;5014577;28;20081;-67
2023/08/27 04:29:26;;;;;;;7.25;3.33;;;;;;;14.68;100.00;100839.06;5020361;28;20607;-68
2023/08/27 04:31:53;;;;;;;;;;;;;;;14.61;100.00;100843.38;5016635;28;20065;-69
2023/08/27 04:34:20;;;;;;;6.72;3.10;;;;;;;14.52;100.00;100837.25;5030381;28;20028;-70
2023/08/27 04:36:46;;;;;;;8.10;3.40;;;;;;;14.50;100.00;100841.06;5022776;28;20089;-68
2023/08/27 04:39:13;;;;;;;6.07;2.58;;;;;;;14.59;100.00;100840.09;5020436;28;20045;-69
2023/08/27 04:41:40;;;;;;;4.63;2.25;;;;;;;14.68;100.00;100840.84;5028630;28;20111;-69
2023/08/27 04:44:06;;;;;;;3.53;2.80;;;;;;;14.72;100.00;100835.09;5011518;28;20057;-69
2023/08/27 04:46:33;;;;;;;5.13;2.67;;;;;;;14.76;100.00;100830.25;5022307;28;20157;-69
2023/08/27 04:49:00;;;;;;;4.90;2.47;;;;;;;14.75;100.00;100832.06;5015685;28;20470;-70
2023/08/27 04:51:27;;;;;;;5.15;2.60;;;;;;;14.80;100.00;100821.00;5029551;28;20045;-70
2023/08/27 04:53:53;;;;;;;5.90;2.63;;;;;;;14.84;100.00;100819.66;5026958;28;20072;-70
2023/08/27 04:56:20;;;;;;;4.93;2.50;;;;;;;14.91;100.00;100801.28;5020887;28;20525;-70
2023/08/27 04:58:46;;;;;;;4.85;2.38;;;;;;;14.97;100.00;100811.16;5027303;28;20045;-69
2023/08/27 05:01:13;;;;;;;4.28;2.00;;;;;;;15.00;100.00;100802.88;5027444;28;21063;-69
2023/08/27 05:03:40;;;;;;;7.38;2.30;;;;;;;15.06;100.00;100804.00;5026633;28;20048;-69
2023/08/27 05:06:07;;;;;;;6.25;2.33;;;;;;;15.07;100.00;100795.88;5016610;28;20610;-68
2023/08/27 05:08:34;;;;;;;4.00;1.80;;;;;;;15.11;100.00;100812.22;5025150;28;20910;-68
2023/08/27 05:11:00;;;;;;;4.10;1.95;;;;;;;15.08;100.00;100817.88;5023431;28;20156;-67
2023/08/27 05:13:27;;;;;;;3.90;2.05;;;;;;;15.05;100.00;100820.84;5017282;28;20045;-67
2023/08/27 05:15:53;;;;;;;3.53;1.85;;;;;;;15.00;100.00;100816.91;5030234;28;20144;-67
2023/08/27 05:18:20;;;;;;;3.65;1.83;;;;;;;15.03;100.00;100821.84;5016829;28;20577;-67
2023/08/27 05:20:46;;;;;;;2.42;1.80;;;;;;;14.99;100.00;100823.22;5021617;28;20068;-67
2023/08/27 05:23:13;;;;;;;4.35;2.10;;;;;;;14.94;100.00;100825.53;5021138;28;20156;-66
2023/08/27 05:25:39;;;;;;;2.80;1.80;;;;;;;14.89;100.00;100832.34;5009161;28;20135;-66
2023/08/27 05:28:07;;;;;;;3.15;1.85;;;;;;;14.91;100.00;100830.34;5018526;28;20049;-67
2023/08/27 05:30:34;;;;;;;2.80;1.90;;;;;;;14.94;100.00;100828.19;5005078;28;20053;-67
2023/08/27 05:33:00;;;;;;;3.35;1.80;;;;;;;14.92;100.00;100824.91;5023524;28;20145;-66
2023/08/27 05:35:27;;;;;;;3.35;1.80;;;;;;;14.93;100.00;100821.25;5016279;28;20067;-67
2023/08/27 05:37:53;;;;;;;3.55;1.65;;;;;;;14.89;100.00;100822.59;5018338;28;20081;-67
2023/08/27 05:40:19;;;;;;;5.10;1.52;;;;;;;14.86;100.00;100809.75;5019366;28;20666;-66
2023/08/27 05:42:46;;;;;;;4.47;1.63;;;;;;;14.95;100.00;100810.50;5019456;28;20115;-66
2023/08/27 05:45:12;;;;;;;2.70;1.55;;;;;;;14.96;100.00;100815.63;5029653;28;20726;-66
2023/08/27 05:47:39;;;;;;;3.53;1.75;;;;;;;14.96;100.00;100807.69;5027893;28;20143;-67
2023/08/27 05:50:06;;;;;;;2.63;1.60;;;;;;;15.02;100.00;100807.00;5011678;28;20041;-67
2023/08/27 05:52:33;;;;;;;3.10;1.73;;;;;;;15.09;100.00;100796.53;5020381;28;20458;-66
2023/08/27 05:55:00;;;;;;;2.15;1.70;;;;;;;15.14;100.00;100796.84;5026422;28;20072;-66
2023/08/27 05:57:26;;;;;;;3.40;1.60;;;;;;;15.08;100.00;100794.09;5017224;28;20154;-66
2023/08/27 05:59:52;;;;;;;4.00;1.95;;;;;;;15.13;100.00;100800.50;5027577;28;20772;-67
2023/08/27 06:02:19;;;;;;;1.70;1.58;;;;;;;15.17;100.00;100804.41;5014895;28;20836;-66
2023/08/27 06:04:45;;;;;;;4.63;1.40;;;;;;;15.20;100.00;100805.88;5017318;28;20048;-66
2023/08/27 06:07:12;;;;;;;3.13;1.45;;;;;;;15.17;100.00;100804.41;5019550;28;20049;-67
2023/08/27 06:09:39;;;;;;;4.63;2.25;;;;;;;15.28;100.00;100805.81;5017716;28;20642;-66
2023/08/27 06:12:06;;;;;;;5.60;2.30;;;;;;;15.33;100.00;100805.28;5024882;28;20050;-66
2023/08/27 06:14:33;;;;;;;3.05;1.80;;;;;;;15.33;100.00;100805.28;5023595;28;20053;-66
2023/08/27 06:17:00;;;;;;;3.13;1.85;;;;;;;15.34;100.00;100812.22;5007042;28;20076;-67
2023/08/27 06:19:26;;;;;;;3.58;2.20;;;;;;;15.31;100.00;100805.47;5016964;28;20045;-67
2023/08/27 06:22:12;;;;;;;3.80;2.50;;;;;;;15.17;100.00;100812.34;5017285;28;20049;-66
2023/08/27 06:24:38;;;;;;;4.82;2.15;;;;;;;15.13;100.00;100810.22;5024582;28;20053;-66
2023/08/27 06:27:05;;;;;;;3.20;2.40;;;;;;;15.14;100.00;100809.22;5021001;28;20071;-66
2023/08/27 06:29:32;;;;;;;6.18;3.22;;;;;;;15.11;100.00;100801.66;5025472;28;20042;-66
2023/08/27 06:31:58;;;;;;;5.78;2.83;;;;;;;15.10;100.00;100792.09;5016422;28;20075;-66
2023/08/27 06:34:25;;;;;;;6.15;2.85;;;;;;;15.13;100.00;100784.63;5023360;28;20080;-66
2023/08/27 06:36:51;;;;;;;5.93;2.97;;;;;;;15.11;100.00;100788.44;5019877;28;20045;-66
2023/08/27 06:39:18;;;;;;;3.83;2.60;;;;;;;15.10;100.00;100787.63;5014303;28;20045;-66
2023/08/27 06:41:44;;;;;;;4.85;2.70;;;;;;;15.14;100.00;100782.81;5024499;28;20077;-66
2023/08/27 06:44:10;;;;;;;4.85;3.00;;;;;;;15.22;100.00;100790.66;5009686;28;20061;-66
2023/08/27 06:46:37;;;;;;;6.85;2.90;;;;;;;15.17;100.00;100778.00;5021201;28;20088;-66
2023/08/27 06:49:04;;;;;;;5.57;2.40;;;;;;;15.08;100.00;100783.53;5016236;28;20823;-67
2023/08/27 06:51:30;;;;;;;4.90;2.60;;;;;;;15.06;100.00;100778.41;5032001;28;20053;-66
2023/08/27 06:53:57;;;;;;;3.28;2.35;;;;;;;15.05;100.00;100789.13;5026823;28;20049;-66
2023/08/27 06:56:26;;;;;;;6.13;2.47;;;;;;;15.08;100.00;100791.44;5028021;28;20044;-66
2023/08/27 06:58:52;;;;;;;5.72;2.80;;;;;;;15.11;100.00;100780.50;5008492;28;20108;-67
2023/08/27 07:01:19;;;;;;;5.25;2.75;;;;;;;15.11;100.00;100789.28;4999582;28;20505;-67
2023/08/27 07:03:45;;;;;;;4.78;2.92;;;;;;;15.13;100.00;100783.78;5012155;28;20077;-67
2023/08/27 07:06:12;;;;;;;7.05;2.88;;;;;;;15.13;100.00;100789.91;5026096;28;20401;-67
2023/08/27 07:08:38;;;;;;;5.25;2.80;;;;;;;15.13;100.00;100794.34;5022723;28;20176;-66
2023/08/27 07:11:05;;;;;;;5.63;2.75;;;;;;;15.11;100.00;100785.78;5007045;28;20103;-66
2023/08/27 07:13:31;;;;;;;5.45;2.92;;;;;;;15.15;100.00;100787.06;5013236;28;20050;-66
2023/08/27 07:15:58;;;;;;;8.00;3.05;;;;;;;15.24;100.00;100791.31;5006527;28;20080;-66
2023/08/27 07:18:24;;;;;;;7.70;2.72;;;;;;;15.36;100.00;100789.88;5022381;28;20080;-66
2023/08/27 07:20:51;;;;;;;7.53;3.22;;;;;;;15.40;100.00;100790.34;5023517;28;20055;-66
2023/08/27 07:23:17;;;;;;;5.32;3.20;;;;;;;15.43;100.00;100803.22;5005754;28;20049;-66
2023/08/27 07:25:44;;;;;;;6.38;3.30;;;;;;;15.42;100.00;100797.09;5019548;28;20498;-66
2023/08/27 07:28:11;;;;;;;7.38;3.20;;;;;;;15.48;100.00;100797.38;5024975;28;20057;-66
2023/08/27 07:30:37;;;;;;;8.57;2.80;;;;;;;15.60;100.00;100796.78;5016257;28;20144;-66
2023/08/27 07:33:06;;;;;;;5.93;2.85;;;;;;;15.71;100.00;100792.88;5029452;28;20063;-66
2023/08/27 07:35:33;;;;;;;5.85;3.50;;;;;;;15.75;100.00;100798.66;5017135;28;20053;-66
2023/08/27 07:37:59;;;;;;;9.07;3.95;;;;;;;15.80;100.00;100788.34;5027584;28;20044;-67
2023/08/27 07:40:26;;;;;;;7.47;3.95;;;;;;;15.79;100.00;100798.09;5023370;28;20172;-66
2023/08/27 07:42:52;;;;;;;6.68;4.00;;;;;;;15.93;100.00;100796.47;5006015;28;20119;-66
2023/08/27 07:45:19;;;;;;;6.93;4.07;;;;;;;15.95;100.00;100793.63;5023280;28;20089;-66
2023/08/27 07:47:45;;;;;;;5.65;3.80;;;;;;;16.01;100.00;100793.75;5021181;28;20051;-66
2023/08/27 07:50:12;;;;;;;7.72;3.42;;;;;;;16.03;100.00;100798.81;5015299;28;20038;-65
2023/08/27 07:52:38;;;;;;;6.32;3.28;;;;;;;16.16;100.00;100795.56;5011120;28;20075;-66
2023/08/27 07:55:05;;;;;;;7.28;3.70;;;;;;;16.28;100.00;100802.00;5025470;28;20459;-66
2023/08/27 07:57:32;;;;;;;7.35;3.80;;;;;;;16.40;100.00;100787.28;5025051;28;20045;-66
2023/08/27 07:59:58;;;;;;;7.85;4.05;;;;;;;16.50;100.00;100789.66;5019232;28;20158;-66
2023/08/27 08:02:25;;;;;;;8.32;4.30;;;;;;;16.53;100.00;100784.00;5035319;28;20134;-66
2023/08/27 08:04:51;;;;;;;7.22;3.67;;;;;;;16.68;100.00;100788.41;5011152;28;20053;-66
2023/08/27 08:07:18;;;;;;;5.97;3.75;;;;;;;16.76;100.00;100781.19;5031281;28;20049;-67
2023/08/27 08:09:44;;;;;;;7.10;3.85;;;;;;;16.82;100.00;100789.41;5019590;28;20425;-66
2023/08/27 08:12:10;;;;;;;6.13;3.28;;;;;;;16.94;100.00;100783.44;5022192;28;20063;-66
2023/08/27 08:14:37;;;;;;;6.95;3.55;;;;;;;17.07;100.00;100787.22;5025822;28;20099;-67
2023/08/27 08:17:03;;;;;;;7.63;3.60;;;;;;;17.24;100.00;100788.59;5012350;28;20107;-67
2023/08/27 08:19:30;;;;;;;8.00;3.70;;;;;;;17.23;100.00;100780.81;5017406;28;20042;-67
2023/08/27 08:21:56;;;;;;;10.48;3.90;;;;;;;17.19;100.00;100777.75;5015615;28;20060;-67
2023/08/27 08:24:23;;;;;;;8.02;3.60;;;;;;;17.26;100.00;100772.50;5019690;28;20119;-66
2023/08/27 08:26:52;;;;;;;5.28;3.33;;;;;;;17.43;100.00;100765.09;5027238;28;20073;-67
2023/08/27 08:29:20;;;;;;;7.30;3.92;;;;;;;17.68;100.00;100773.41;5029123;28;20045;-67
2023/08/27 08:31:47;;;;;;;8.15;4.57;;;;;;;17.71;100.00;100767.72;5029924;28;20496;-67
2023/08/27 08:34:14;;;;;;;9.85;4.53;;;;;;;17.77;100.00;100772.25;5013284;28;20140;-67
2023/08/27 08:36:40;;;;;;;8.18;4.53;;;;;;;17.91;100.00;100763.38;5028434;28;20129;-67
2023/08/27 08:39:07;;;;;;;8.40;4.32;;;;;;;18.02;100.00;100763.84;5020523;28;20368;-67
2023/08/27 08:41:38;;;;;;;10.18;4.15;;;;;;;18.24;100.00;100764.56;5024878;28;20132;-67
2023/08/27 08:44:25;;;;;;;5.22;3.45;;;;;;;18.30;100.00;100772.53;5025056;28;20476;-67
2023/08/27 08:46:52;;;;;;;7.22;3.15;;;;;;;18.25;100.00;100776.81;5029268;28;20280;-67
2023/08/27 08:49:22;;;;;;;8.65;3.70;;;;;;;17.98;100.00;100782.81;5021428;28;20395;-67
2023/08/27 08:51:55;;;;;;;7.10;3.40;;;;;;;17.97;100.00;100775.88;5016375;28;20053;-67
2023/08/27 08:54:25;;;;;;;5.55;2.85;;;;;;;18.26;100.00;100778.44;5019906;28;20758;-67
2023/08/27 08:56:54;;;;;;;10.23;3.33;;;;;;;18.23;100.00;100784.97;5024775;28;20087;-67
2023/08/27 08:59:22;;;;;;;5.38;3.40;;;;;;;18.31;100.00;100784.00;5018402;28;20509;-67
2023/08/27 09:01:49;;;;;;;4.43;2.70;;;;;;;18.27;100.00;100788.03;5009914;28;20077;-67
2023/08/27 09:04:16;;;;;;;4.68;2.80;;;;;;;18.19;100.00;100775.78;5024856;28;20091;-67
2023/08/27 09:06:44;;;;;;;10.43;3.25;;;;;;;18.08;100.00;100776.34;5010083;28;20045;-67
2023/08/27 09:09:12;;;;;;;6.25;2.63;;;;;;;17.99;100.00;100775.66;5017238;28;20171;-67
2023/08/27 09:11:40;;;;;;;5.93;2.63;;;;;;;18.05;100.00;100768.75;5026639;28;20049;-68
2023/08/27 09:14:09;;;;;;;7.50;3.38;;;;;;;18.04;100.00;100769.78;5002863;28;20131;-68
2023/08/27 09:16:36;;;;;;;8.73;3.42;;;;;;;17.96;100.00;100766.25;5017389;28;20058;-68
2023/08/27 09:19:02;;;;;;;8.20;2.88;;;;;;;18.07;100.00;100764.06;5015804;28;20481;-68
2023/08/27 09:21:30;;;;;;;6.55;2.80;;;;;;;18.01;100.00;100757.72;5014778;28;20064;-68
2023/08/27 09:23:57;;;;;;;7.40;2.80;;;;;;;17.89;100.00;100762.75;5005380;28;20131;-68
2023/08/27 09:26:24;;;;;;;7.80;3.13;;;;;;;18.13;100.00;100761.47;5017248;28;20045;-68
2023/08/27 09:28:51;;;;;;;4.90;1.85;;;;;;;18.24;100.00;100765.38;5017879;28;20049;-68
2023/08/27 09:31:39;;;;;;;7.10;2.58;;;;;;;18.33;100.00;100755.41;5016512;28;20057;-68
2023/08/27 09:34:07;;;;;;;5.47;2.10;;;;;;;18.29;100.00;100756.81;5010896;28;20107;-68
2023/08/27 09:36:36;;;;;;;5.43;2.15;;;;;;;18.33;100.00;100748.25;5018813;28;20136;-68
2023/08/27 09:39:11;;;;;;;5.88;2.08;;;;;;;18.25;100.00;100743.13;5007250;28;20521;-67
2023/08/27 09:41:42;;;;;;;3.05;1.98;;;;;;;18.01;100.00;100749.75;5009405;28;20127;-68
2023/08/27 09:44:09;;;;;;;5.68;2.10;;;;;;;18.48;100.00;100742.75;5018141;28;20053;-68
2023/08/27 09:46:36;;;;;;;4.50;1.98;;;;;;;18.68;100.00;100742.00;5018848;28;20085;-68
2023/08/27 09:49:06;;;;;;;7.47;2.00;;;;;;;18.97;100.00;100732.84;4998906;28;20847;-68
2023/08/27 09:51:34;;;;;;;3.75;1.50;;;;;;;19.02;97.09;100738.41;5027085;28;20049;-68
2023/08/27 09:54:00;;;;;;;4.57;1.98;;;;;;;19.20;97.38;100729.81;5011371;28;20133;-67
2023/08/27 09:56:28;;;;;;;4.43;1.77;;;;;;;19.28;92.97;100728.78;5023922;28;20104;-68
2023/08/27 09:58:56;;;;;;;4.07;1.77;;;;;;;19.51;96.07;100718.50;5033480;28;20052;-68
2023/08/27 10:01:23;;;;;;;5.85;2.00;;;;;;;19.69;93.78;100731.16;5023885;28;20055;-68
2023/08/27 10:03:50;;;;;;;5.32;1.92;;;;;;;19.74;93.54;100733.22;5025373;28;20064;-68
2023/08/27 10:06:16;;;;;;;4.50;1.90;;;;;;;19.49;88.11;100743.69;5024540;28;20105;-68
2023/08/27 10:08:51;;;;;;;7.22;1.98;;;;;;;19.44;90.79;100732.84;5020900;28;20045;-68
2023/08/27 10:11:22;;;;;;;4.38;1.85;;;;;;;19.26;93.70;100736.13;5013737;28;20553;-68
2023/08/27 10:13:50;;;;;;;5.30;1.70;;;;;;;19.49;96.60;100736.53;5019974;28;20128;-69
2023/08/27 10:16:17;;;;;;;5.57;1.80;;;;;;;19.27;94.39;100732.47;5028754;28;20051;-68
2023/08/27 10:18:43;;;;;;;2.53;1.73;;;;;;;19.33;94.18;100729.00;5017282;28;20061;-68
2023/08/27 10:21:10;;;;;;;4.80;1.77;;;;;;;19.25;95.87;100732.66;5027644;28;20141;-68
2023/08/27 10:23:41;;;;;;;6.97;1.75;;;;;;;19.13;94.16;100729.81;5009609;28;20709;-69
2023/08/27 10:26:08;;;;;;;5.05;1.88;;;;;;;19.12;95.28;100719.38;5028264;28;20053;-68
2023/08/27 10:28:35;;;;;;;4.85;1.70;;;;;;;19.07;95.49;100727.97;5022343;28;20108;-68
2023/08/27 10:31:03;;;;;;;4.80;1.85;;;;;;;18.88;95.72;100726.94;5023245;28;20105;-68
2023/08/27 10:33:30;;;;;;;4.13;1.85;;;;;;;18.85;95.48;100727.34;5008717;28;20568;-68
2023/08/27 10:36:02;;;;;;;4.70;1.98;;;;;;;18.78;98.88;100732.63;5018461;28;20068;-68
2023/08/27 10:38:31;;;;;;;4.43;1.73;;;;;;;18.77;98.49;100728.31;5028240;28;20046;-68
2023/08/27 10:40:59;;;;;;;3.67;1.45;;;;;;;18.85;100.00;100734.50;5025151;28;20108;-68
2023/08/27 10:43:32;;;;;;;6.97;1.95;;;;;;;18.92;100.00;100735.34;5026538;28;20042;-68
2023/08/27 10:46:15;;;;;;;3.25;1.35;;;;;;;18.95;94.95;100738.41;5024149;28;20115;-69
2023/08/27 10:48:49;;;;;;;2.80;1.35;;;;;;;18.91;85.96;100745.13;5013082;28;20076;-68
2023/08/27 10:51:17;;;;;;;2.85;1.00;;;;;;;18.78;80.91;100737.94;5018033;28;20057;-68
2023/08/27 10:53:49;;;;;;;;;;;;;;;18.78;82.21;100732.63;5024514;28;20052;-68
2023/08/27 10:56:31;;;;;;;1.48;0.90;;;;;;;18.75;80.93;100735.66;5030835;28;20501;-68
2023/08/27 10:59:11;;;;;;;1.63;0.90;;;;;;;18.68;80.78;100745.50;5024362;28;20061;-68
2023/08/27 11:01:59;;;;;;;1.55;0.85;;;;;;;18.69;84.15;100741.00;5011749;28;20059;-68
2023/08/27 11:04:41;;;;;;;2.22;1.42;;;;;;;19.04;86.73;100739.00;5014846;28;20053;-68
2023/08/27 11:07:08;;;;;;;2.20;1.15;;;;;;;19.13;84.37;100744.94;5031220;28;20464;-68
2023/08/27 11:09:44;;;;;;;1.30;1.00;;;;;;;19.15;82.96;100732.25;5025509;28;20148;-69
2023/08/27 11:12:20;;;;;;;2.35;1.67;;;;;;;19.53;88.44;100734.28;5019726;28;20145;-69
2023/08/27 11:14:46;;;;;;;2.42;1.02;;;;;;;19.63;82.84;100726.66;5022085;28;20050;-69
2023/08/27 11:17:22;;;;;;;2.80;1.10;;;;;;;19.77;84.82;100726.66;5031714;28;20068;-69
2023/08/27 11:19:49;;;;;;;1.90;1.10;;;;;;;19.95;85.79;100724.97;5024881;28;20041;-71
2023/08/27 11:22:19;;;;;;;1.98;1.10;;;;;;;20.46;84.54;100730.44;5021184;28;20114;-69